HAT weather

CLOSED [Duplicate] Heathlands Airport
Heathlands, Queensland, Australia

Public forecast

Using degrees Celsius for public forecast. Weather courtesy of forecast.io.

METAR (pilot weather report)

Closest report is Weipa Airport, 68.3 nm (126.4 km) SW. Retrieved 2019/05/25 20:00 UTC (23 minutes ago):

YBWP 252000Z AUTO 00000KT //// // ////// 20/19 Q1012

TAF (pilot weather forecast)

Closest forecast is Horn Island Airport, 71.1 nm (131.7 km) NNW. Retrieved 2019/05/25 18:00 UTC (2 hours ago):

TAF YHID 251721Z 2518/2618 13012KT 9999 SCT020 SCT035 FM260000 13017KT 9999 FEW025 FM260800 13012KT 9999 SCT020 SCT035